createdAt,value
2019-05-29T00:00:36.176Z,917.83
2019-05-29T00:01:36.251Z,917.83
2019-05-29T00:02:36.138Z,917.80
2019-05-29T00:03:36.128Z,917.83
2019-05-29T00:04:36.117Z,917.81
2019-05-29T00:05:36.109Z,917.82
2019-05-29T00:06:36.096Z,917.87
2019-05-29T00:07:36.238Z,917.89
2019-05-29T00:08:36.076Z,917.91
2019-05-29T00:09:36.066Z,917.92
2019-05-29T00:10:36.053Z,917.96
2019-05-29T00:11:36.042Z,917.93
2019-05-29T00:12:36.033Z,917.95
2019-05-29T00:13:36.124Z,917.91
2019-05-29T00:14:36.010Z,917.92
2019-05-29T00:15:36.002Z,917.91
2019-05-29T00:16:35.991Z,917.90
2019-05-29T00:17:35.980Z,917.93
2019-05-29T00:18:35.969Z,917.93
2019-05-29T00:19:36.060Z,917.98
2019-05-29T00:20:35.947Z,917.99
2019-05-29T00:21:35.936Z,917.99
2019-05-29T00:22:35.924Z,917.96
2019-05-29T00:23:35.917Z,918.00
2019-05-29T00:24:35.904Z,918.01
2019-05-29T00:25:36.145Z,918.03
2019-05-29T00:26:35.884Z,918.07
2019-05-29T00:27:35.875Z,918.05
2019-05-29T00:28:35.862Z,918.10
2019-05-29T00:29:35.853Z,918.11
2019-05-29T00:30:35.842Z,918.16
2019-05-29T00:31:35.881Z,918.14
2019-05-29T00:32:36.228Z,918.16
2019-05-29T00:33:35.811Z,918.19
2019-05-29T00:34:35.808Z,918.09
2019-05-29T00:35:35.789Z,918.12
2019-05-29T00:36:35.779Z,918.10
2019-05-29T00:37:35.822Z,918.15
2019-05-29T00:38:35.756Z,918.11
2019-05-29T00:39:35.756Z,918.11
2019-05-29T00:40:35.738Z,918.12
2019-05-29T00:41:35.728Z,918.17
2019-05-29T00:42:35.741Z,918.13
2019-05-29T00:43:35.860Z,918.17
2019-05-29T00:44:35.704Z,918.19
2019-05-29T00:45:35.689Z,918.24
2019-05-29T00:46:35.677Z,918.20
2019-05-29T00:47:35.665Z,918.20
2019-05-29T00:48:35.660Z,918.16
2019-05-29T00:49:35.745Z,918.12
2019-05-29T00:50:35.634Z,918.15
2019-05-29T00:51:35.625Z,918.15
2019-05-29T00:52:35.611Z,918.21
2019-05-29T00:53:35.603Z,918.24
2019-05-29T00:54:35.590Z,918.29
2019-05-29T00:55:35.633Z,918.20
2019-05-29T00:56:35.567Z,918.28
2019-05-29T00:57:35.560Z,918.25
2019-05-29T00:58:35.547Z,918.24
2019-05-29T00:59:35.547Z,918.28
2019-05-29T01:00:35.525Z,918.26
2019-05-29T01:01:35.669Z,918.27
2019-05-29T01:02:35.511Z,918.21
2019-05-29T01:03:35.501Z,918.25
2019-05-29T01:04:35.482Z,918.25
2019-05-29T01:05:35.475Z,918.25
2019-05-29T01:06:35.460Z,918.26
2019-05-29T01:07:35.554Z,918.19
2019-05-29T01:08:35.444Z,918.19
2019-05-29T01:09:35.432Z,918.17
2019-05-29T01:10:35.423Z,918.17
2019-05-29T01:11:35.417Z,918.17
2019-05-29T01:12:35.410Z,918.19
2019-05-29T01:13:35.488Z,918.17
2019-05-29T01:14:49.213Z,918.21
2019-05-29T01:15:37.367Z,918.18
2019-05-29T01:16:35.359Z,918.21
2019-05-29T01:17:35.350Z,918.19
2019-05-29T01:18:35.353Z,918.18
2019-05-29T01:19:35.479Z,918.20
2019-05-29T01:20:35.317Z,918.23
2019-05-29T01:21:35.309Z,918.21
2019-05-29T01:22:35.301Z,918.20
2019-05-29T01:23:35.288Z,918.20
2019-05-29T01:24:35.281Z,918.19
2019-05-29T01:25:35.318Z,918.24
2019-05-29T01:26:35.263Z,918.22
2019-05-29T01:27:35.245Z,918.24
2019-05-29T01:28:35.238Z,918.26
2019-05-29T01:29:35.226Z,918.26
2019-05-29T01:30:35.216Z,918.32
2019-05-29T01:31:35.257Z,918.26
2019-05-29T01:32:35.196Z,918.20
2019-05-29T01:33:35.185Z,918.19
2019-05-29T01:34:35.175Z,918.23
2019-05-29T01:35:35.166Z,918.26
2019-05-29T01:36:35.153Z,918.25
2019-05-29T01:37:35.293Z,918.26
2019-05-29T01:38:35.133Z,918.26
2019-05-29T01:39:35.125Z,918.28
2019-05-29T01:40:35.113Z,918.29
2019-05-29T01:41:35.099Z,918.23
2019-05-29T01:42:35.092Z,918.27
2019-05-29T01:43:35.132Z,918.28
2019-05-29T01:44:35.070Z,918.27
2019-05-29T01:45:35.062Z,918.30
2019-05-29T01:46:35.051Z,918.34
2019-05-29T01:47:35.044Z,918.33
2019-05-29T01:48:35.183Z,918.37
2019-05-29T01:49:35.200Z,918.36
2019-05-29T01:50:35.009Z,918.38
2019-05-29T01:51:35.000Z,918.38
2019-05-29T01:52:34.995Z,918.36
2019-05-29T01:53:34.979Z,918.36
2019-05-29T01:54:35.068Z,918.40
2019-05-29T01:55:34.959Z,918.40
2019-05-29T01:56:34.951Z,918.44
2019-05-29T01:57:34.949Z,918.43
2019-05-29T01:58:34.931Z,918.43
2019-05-29T01:59:34.923Z,918.46
2019-05-29T02:00:35.014Z,918.48
2019-05-29T02:01:34.902Z,918.47
2019-05-29T02:02:34.892Z,918.46
2019-05-29T02:03:34.895Z,918.49
2019-05-29T02:04:34.874Z,918.51
2019-05-29T02:05:34.875Z,918.53
2019-05-29T02:06:34.951Z,918.55
2019-05-29T02:07:34.841Z,918.53
2019-05-29T02:08:34.833Z,918.56
2019-05-29T02:09:34.822Z,918.53
2019-05-29T02:10:34.814Z,918.54
2019-05-29T02:11:34.801Z,918.47
2019-05-29T02:12:34.893Z,918.45
2019-05-29T02:13:34.783Z,918.46
2019-05-29T02:14:34.781Z,918.46
2019-05-29T02:15:34.778Z,918.45
2019-05-29T02:16:34.754Z,918.45
2019-05-29T02:17:34.745Z,918.44
2019-05-29T02:18:34.783Z,918.46
2019-05-29T02:19:34.724Z,918.48
2019-05-29T02:20:34.712Z,918.48
2019-05-29T02:21:34.702Z,918.53
2019-05-29T02:22:34.692Z,918.54
2019-05-29T02:23:34.683Z,918.56
2019-05-29T02:24:34.773Z,918.54
2019-05-29T02:25:34.664Z,918.59
2019-05-29T02:26:34.650Z,918.59
2019-05-29T02:27:34.642Z,918.61
2019-05-29T02:28:34.633Z,918.59
2019-05-29T02:29:34.623Z,918.55
2019-05-29T02:30:34.662Z,918.50
2019-05-29T02:31:34.604Z,918.54
2019-05-29T02:32:34.595Z,918.59
2019-05-29T02:33:34.582Z,918.55
2019-05-29T02:34:34.573Z,918.56
2019-05-29T02:35:34.559Z,918.58
2019-05-29T02:36:34.613Z,918.56
2019-05-29T02:37:34.543Z,918.58
2019-05-29T02:38:34.529Z,918.55
2019-05-29T02:39:34.524Z,918.58
2019-05-29T02:40:34.510Z,918.59
2019-05-29T02:41:34.500Z,918.54
2019-05-29T02:42:34.588Z,918.58
2019-05-29T02:43:34.481Z,918.57
2019-05-29T02:44:34.468Z,918.60
2019-05-29T02:45:53.213Z,918.57
2019-05-29T02:46:59.259Z,918.59
2019-05-29T02:47:59.387Z,918.56
2019-05-29T02:48:59.241Z,918.59
2019-05-29T02:49:59.231Z,918.55
2019-05-29T02:50:59.219Z,918.53
2019-05-29T02:51:59.212Z,918.56
2019-05-29T02:52:59.199Z,918.54
2019-05-29T02:53:59.240Z,918.58
2019-05-29T02:54:59.189Z,918.62
2019-05-29T02:55:59.174Z,918.55
2019-05-29T02:56:59.177Z,918.59
2019-05-29T02:57:59.154Z,918.57
2019-05-29T02:58:59.140Z,918.61
2019-05-29T02:59:59.178Z,918.56
2019-05-29T03:00:59.121Z,918.58
2019-05-29T03:01:59.109Z,918.57
2019-05-29T03:02:59.096Z,918.59
2019-05-29T03:03:59.087Z,918.61
2019-05-29T03:04:59.077Z,918.59
2019-05-29T03:05:59.122Z,918.59
2019-05-29T03:06:59.059Z,918.60
2019-05-29T03:07:59.053Z,918.63
2019-05-29T03:08:59.040Z,918.62
2019-05-29T03:09:59.031Z,918.61
2019-05-29T03:10:59.020Z,918.60
2019-05-29T03:12:00.331Z,918.59
2019-05-29T03:12:59.002Z,918.63
2019-05-29T03:13:58.990Z,918.59
2019-05-29T03:14:58.982Z,918.61
2019-05-29T03:16:10.731Z,918.64
2019-05-29T03:17:25.628Z,918.63
2019-05-29T03:18:24.403Z,918.63
2019-05-29T03:19:23.954Z,918.64
2019-05-29T03:20:23.963Z,918.61
2019-05-29T03:21:24.087Z,918.61
2019-05-29T03:22:24.144Z,918.67
2019-05-29T03:23:24.207Z,918.63
2019-05-29T03:24:24.504Z,918.65
2019-05-29T03:25:24.286Z,918.67
2019-05-29T03:26:25.288Z,918.64
2019-05-29T03:27:23.727Z,918.68
2019-05-29T03:28:23.767Z,918.64
2019-05-29T03:29:23.708Z,918.67
2019-05-29T03:30:23.698Z,918.67
2019-05-29T03:31:23.709Z,918.66
2019-05-29T03:32:23.684Z,918.68
2019-05-29T03:33:23.669Z,918.66
2019-05-29T03:34:23.708Z,918.64
2019-05-29T03:35:23.651Z,918.66
2019-05-29T03:36:23.641Z,918.65
2019-05-29T03:37:23.629Z,918.67
2019-05-29T03:38:23.625Z,918.64
2019-05-29T03:39:23.617Z,918.65
2019-05-29T03:40:23.651Z,918.65
2019-05-29T03:41:23.592Z,918.68
2019-05-29T03:42:23.583Z,918.64
2019-05-29T03:43:23.570Z,918.65
2019-05-29T03:44:23.572Z,918.65
2019-05-29T03:45:23.554Z,918.66
2019-05-29T03:46:31.288Z,918.67
2019-05-29T03:47:48.355Z,918.64
2019-05-29T03:48:48.337Z,918.69
2019-05-29T03:49:48.328Z,918.65
2019-05-29T03:50:48.319Z,918.67
2019-05-29T03:51:48.407Z,918.59
2019-05-29T03:52:48.300Z,918.58
2019-05-29T03:53:48.289Z,918.65
2019-05-29T03:54:48.283Z,918.66
2019-05-29T03:55:48.269Z,918.62
2019-05-29T03:56:48.264Z,918.61
2019-05-29T03:57:48.356Z,918.65
2019-05-29T03:58:48.240Z,918.62
2019-05-29T03:59:48.231Z,918.62
2019-05-29T04:00:48.982Z,918.63
2019-05-29T04:01:48.212Z,918.60
2019-05-29T04:02:48.214Z,918.66
2019-05-29T04:03:48.272Z,918.64
2019-05-29T04:04:48.183Z,918.66
2019-05-29T04:05:48.172Z,918.70
2019-05-29T04:06:48.164Z,918.67
2019-05-29T04:07:48.158Z,918.68
2019-05-29T04:08:48.143Z,918.70
2019-05-29T04:09:48.185Z,918.69
2019-05-29T04:10:48.124Z,918.65
2019-05-29T04:11:48.120Z,918.63
2019-05-29T04:12:48.103Z,918.62
2019-05-29T04:13:48.096Z,918.61
2019-05-29T04:14:48.089Z,918.56
2019-05-29T04:15:48.178Z,918.56
2019-05-29T04:16:59.400Z,918.58
2019-05-29T04:18:12.866Z,918.57
2019-05-29T04:19:12.858Z,918.55
2019-05-29T04:20:12.859Z,918.56
2019-05-29T04:21:12.937Z,918.55
2019-05-29T04:22:12.828Z,918.53
2019-05-29T04:23:12.818Z,918.52
2019-05-29T04:24:12.807Z,918.56
2019-05-29T04:25:12.798Z,918.52
2019-05-29T04:26:12.788Z,918.53
2019-05-29T04:27:12.851Z,918.51
2019-05-29T04:28:12.789Z,918.52
2019-05-29T04:29:12.760Z,918.50
2019-05-29T04:30:12.766Z,918.48
2019-05-29T04:31:12.748Z,918.48
2019-05-29T04:32:12.742Z,918.49
2019-05-29T04:33:12.824Z,918.48
2019-05-29T04:34:12.716Z,918.51
2019-05-29T04:35:12.720Z,918.52
2019-05-29T04:36:12.694Z,918.52
2019-05-29T04:37:12.683Z,918.53
2019-05-29T04:38:12.673Z,918.53
2019-05-29T04:39:12.714Z,918.52
2019-05-29T04:40:12.676Z,918.49
2019-05-29T04:41:12.644Z,918.50
2019-05-29T04:42:12.635Z,918.48
2019-05-29T04:43:12.631Z,918.46
2019-05-29T04:44:12.616Z,918.46
2019-05-29T04:45:12.717Z,918.48
2019-05-29T04:46:12.598Z,918.47
2019-05-29T04:47:12.911Z,918.47
2019-05-29T04:48:12.581Z,918.46
2019-05-29T04:49:12.569Z,918.45
2019-05-29T04:50:12.558Z,918.46
2019-05-29T04:51:12.601Z,918.45
2019-05-29T04:52:12.536Z,918.48
2019-05-29T04:53:12.539Z,918.48
2019-05-29T04:54:12.527Z,918.47
2019-05-29T04:55:12.508Z,918.42
2019-05-29T04:56:12.497Z,918.45
2019-05-29T04:57:12.587Z,918.42
2019-05-29T04:58:12.477Z,918.40
2019-05-29T04:59:12.467Z,918.40
2019-05-29T05:00:12.456Z,918.38
2019-05-29T05:01:12.445Z,918.38
2019-05-29T05:02:12.437Z,918.39
2019-05-29T05:03:12.477Z,918.38
2019-05-29T05:04:12.416Z,918.35
2019-05-29T05:05:12.409Z,918.33
2019-05-29T05:06:12.396Z,918.33
2019-05-29T05:07:12.386Z,918.32
2019-05-29T05:08:12.374Z,918.35
2019-05-29T05:09:12.464Z,918.31
2019-05-29T05:10:12.354Z,918.38
2019-05-29T05:11:12.344Z,918.36
2019-05-29T05:12:12.334Z,918.37
2019-05-29T05:13:12.323Z,918.34
2019-05-29T05:14:12.312Z,918.36
2019-05-29T05:15:12.403Z,918.36
2019-05-29T05:16:12.291Z,918.34
2019-05-29T05:17:25.270Z,918.30
2019-05-29T05:18:37.952Z,918.33
2019-05-29T05:19:38.121Z,918.34
2019-05-29T05:20:38.281Z,918.29
2019-05-29T05:21:38.078Z,918.31
2019-05-29T05:22:38.132Z,918.28
2019-05-29T05:23:38.135Z,918.31
2019-05-29T05:24:40.887Z,918.30
2019-05-29T05:25:38.234Z,918.28
2019-05-29T05:26:38.306Z,918.26
2019-05-29T05:27:37.006Z,918.26
2019-05-29T05:28:36.985Z,918.27
2019-05-29T05:29:36.972Z,918.26
2019-05-29T05:30:36.964Z,918.24
2019-05-29T05:31:36.953Z,918.23
2019-05-29T05:32:36.994Z,918.23
2019-05-29T05:33:36.932Z,918.24
2019-05-29T05:34:36.952Z,918.22
2019-05-29T05:35:36.914Z,918.24
2019-05-29T05:36:36.902Z,918.26
2019-05-29T05:37:37.022Z,918.25
2019-05-29T05:38:36.934Z,918.23
2019-05-29T05:39:37.329Z,918.23
2019-05-29T05:40:39.651Z,918.21
2019-05-29T05:41:36.931Z,918.21
2019-05-29T05:42:37.157Z,918.21
2019-05-29T05:43:36.983Z,918.19
2019-05-29T05:44:37.079Z,918.17
2019-05-29T05:45:37.070Z,918.20
2019-05-29T05:46:37.126Z,918.15
2019-05-29T05:47:50.326Z,918.13
2019-05-29T05:49:01.597Z,918.18
2019-05-29T05:50:01.727Z,918.14
2019-05-29T05:51:01.578Z,918.13
2019-05-29T05:52:01.570Z,918.11
2019-05-29T05:53:01.559Z,918.15
2019-05-29T05:54:01.546Z,918.12
2019-05-29T05:55:01.538Z,918.09
2019-05-29T05:56:01.581Z,918.09
2019-05-29T05:57:01.517Z,918.08
2019-05-29T05:58:01.510Z,918.07
2019-05-29T05:59:01.501Z,918.04
2019-05-29T06:00:01.488Z,918.03
2019-05-29T06:01:01.478Z,918.05
2019-05-29T06:02:01.664Z,918.03
2019-05-29T06:03:01.457Z,918.01
2019-05-29T06:04:01.452Z,917.98
2019-05-29T06:05:01.453Z,918.02
2019-05-29T06:06:01.429Z,917.98
2019-05-29T06:07:01.418Z,917.97
2019-05-29T06:08:01.460Z,917.99
2019-05-29T06:09:01.401Z,917.96
2019-05-29T06:10:01.386Z,917.95
2019-05-29T06:11:01.377Z,917.94
2019-05-29T06:12:01.368Z,917.95
2019-05-29T06:13:01.358Z,917.93
2019-05-29T06:14:01.398Z,917.92
2019-05-29T06:15:01.336Z,917.88
2019-05-29T06:16:01.327Z,917.90
2019-05-29T06:17:01.316Z,917.89
2019-05-29T06:18:19.828Z,917.88
2019-05-29T06:19:02.441Z,917.91
2019-05-29T06:20:01.292Z,917.85
2019-05-29T06:21:01.315Z,917.86
2019-05-29T06:22:01.263Z,917.89
2019-05-29T06:23:01.254Z,917.89
2019-05-29T06:24:01.265Z,917.91
2019-05-29T06:25:01.310Z,917.89
2019-05-29T06:26:01.225Z,917.86
2019-05-29T06:27:01.214Z,917.89
2019-05-29T06:28:01.235Z,917.86
2019-05-29T06:29:01.192Z,917.85
2019-05-29T06:30:01.412Z,917.84
2019-05-29T06:31:01.219Z,917.86
2019-05-29T06:32:01.163Z,917.80
2019-05-29T06:33:01.147Z,917.81
2019-05-29T06:34:01.139Z,917.81
2019-05-29T06:35:01.140Z,917.77
2019-05-29T06:36:01.117Z,917.80
2019-05-29T06:37:01.158Z,917.77
2019-05-29T06:38:01.097Z,917.76
2019-05-29T06:39:01.091Z,917.80
2019-05-29T06:40:01.075Z,917.82
2019-05-29T06:41:01.068Z,917.86
2019-05-29T06:42:01.055Z,917.80
2019-05-29T06:43:01.158Z,917.82
2019-05-29T06:44:01.137Z,917.79
2019-05-29T06:45:01.343Z,917.79
2019-05-29T06:46:01.013Z,917.75
2019-05-29T06:47:01.004Z,917.76
2019-05-29T06:48:00.996Z,917.81
2019-05-29T06:49:01.256Z,917.81
2019-05-29T06:50:00.973Z,917.80
2019-05-29T06:51:00.964Z,917.78
2019-05-29T06:52:00.953Z,917.78
2019-05-29T06:53:00.942Z,917.73
2019-05-29T06:54:00.931Z,917.75
2019-05-29T06:55:01.018Z,917.76
2019-05-29T06:56:02.062Z,917.68
2019-05-29T06:57:00.899Z,917.74
2019-05-29T06:58:00.909Z,917.73
2019-05-29T06:59:01.048Z,917.71
2019-05-29T07:00:00.866Z,917.70
2019-05-29T07:01:00.957Z,917.76
2019-05-29T07:02:00.849Z,917.72
2019-05-29T07:03:00.865Z,917.70
2019-05-29T07:04:11.474Z,917.69
2019-05-29T07:05:25.625Z,917.65
2019-05-29T07:06:25.716Z,917.67
2019-05-29T07:07:25.604Z,917.68
2019-05-29T07:08:38.024Z,917.61
2019-05-29T07:09:26.678Z,917.62
2019-05-29T07:10:25.577Z,917.60
2019-05-29T07:11:25.564Z,917.59
2019-05-29T07:12:25.605Z,917.58
2019-05-29T07:13:25.546Z,917.59
2019-05-29T07:14:25.554Z,917.60
2019-05-29T07:15:25.526Z,917.58
2019-05-29T07:16:43.152Z,917.55
2019-05-29T07:17:50.368Z,917.58
2019-05-29T07:20:00.413Z,917.54
2019-05-29T07:21:15.151Z,917.52
2019-05-29T07:22:15.137Z,917.51
2019-05-29T07:23:15.176Z,917.50
2019-05-29T07:24:15.119Z,917.46
2019-05-29T07:25:15.102Z,917.42
2019-05-29T07:26:15.091Z,917.49
2019-05-29T07:27:15.078Z,917.45
2019-05-29T07:28:15.074Z,917.44
2019-05-29T07:29:15.164Z,917.45
2019-05-29T07:30:15.054Z,917.41
2019-05-29T07:31:15.046Z,917.42
2019-05-29T07:32:15.039Z,917.43
2019-05-29T07:33:15.016Z,917.43
2019-05-29T07:34:15.007Z,917.41
2019-05-29T07:35:15.102Z,917.39
2019-05-29T07:36:14.989Z,917.38
2019-05-29T07:37:14.975Z,917.33
2019-05-29T07:38:14.965Z,917.35
2019-05-29T07:39:14.954Z,917.31
2019-05-29T07:40:14.943Z,917.30
2019-05-29T07:41:14.987Z,917.31
2019-05-29T07:42:14.923Z,917.31
2019-05-29T07:43:14.913Z,917.30
2019-05-29T07:44:14.901Z,917.29
2019-05-29T07:45:14.892Z,917.28
2019-05-29T07:46:14.880Z,917.24
2019-05-29T07:47:14.923Z,917.23
2019-05-29T07:48:14.858Z,917.20
2019-05-29T07:49:14.867Z,917.20
2019-05-29T07:50:14.843Z,917.16
2019-05-29T07:51:14.828Z,917.23
2019-05-29T07:52:14.824Z,917.21
2019-05-29T07:53:14.907Z,917.20
2019-05-29T07:54:14.798Z,917.18
2019-05-29T07:55:14.790Z,917.18
2019-05-29T07:56:22.516Z,917.16
2019-05-29T07:57:40.889Z,917.14
2019-05-29T07:58:42.210Z,917.12
2019-05-29T08:00:04.367Z,917.14
2019-05-29T08:01:12.725Z,917.13
2019-05-29T08:02:29.160Z,917.09
2019-05-29T08:03:29.158Z,917.10
2019-05-29T08:04:29.238Z,917.09
2019-05-29T08:05:29.143Z,917.04
2019-05-29T08:06:29.119Z,917.08
2019-05-29T08:07:29.108Z,917.06
2019-05-29T08:08:29.097Z,917.02
2019-05-29T08:09:29.089Z,917.05
2019-05-29T08:10:29.126Z,917.02
2019-05-29T08:11:29.073Z,917.02
2019-05-29T08:12:29.059Z,917.03
2019-05-29T08:13:29.051Z,917.00
2019-05-29T08:14:29.039Z,917.01
2019-05-29T08:15:29.035Z,917.04
2019-05-29T08:16:29.116Z,917.00
2019-05-29T08:17:29.012Z,917.00
2019-05-29T08:18:29.041Z,916.98
2019-05-29T08:19:28.991Z,917.00
2019-05-29T08:20:28.979Z,916.97
2019-05-29T08:21:28.968Z,916.99
2019-05-29T08:22:34.295Z,917.00
2019-05-29T08:23:28.948Z,917.01
2019-05-29T08:24:28.938Z,916.97
2019-05-29T08:25:28.933Z,916.99
2019-05-29T08:26:28.927Z,916.95
2019-05-29T08:27:28.904Z,916.96
2019-05-29T08:28:28.997Z,916.95
2019-05-29T08:29:28.887Z,916.91
2019-05-29T08:30:28.875Z,916.92
2019-05-29T08:31:28.867Z,916.88
2019-05-29T08:32:28.855Z,916.87
2019-05-29T08:33:28.850Z,916.86
2019-05-29T08:34:28.887Z,916.87
2019-05-29T08:35:28.835Z,916.87
2019-05-29T08:36:28.818Z,916.86
2019-05-29T08:37:28.805Z,916.86
2019-05-29T08:38:28.800Z,916.87
2019-05-29T08:39:36.083Z,916.87
2019-05-29T08:40:53.687Z,916.80
2019-05-29T08:42:17.557Z,916.83
2019-05-29T08:43:18.513Z,916.81
2019-05-29T08:44:18.465Z,916.77
2019-05-29T08:45:18.455Z,916.78
2019-05-29T08:46:18.497Z,916.75
2019-05-29T08:47:18.435Z,916.75
2019-05-29T08:48:18.426Z,916.70
2019-05-29T08:49:18.416Z,916.72
2019-05-29T08:50:19.352Z,916.70
2019-05-29T08:51:18.394Z,916.73
2019-05-29T08:52:18.436Z,916.70
2019-05-29T08:53:18.369Z,916.70
2019-05-29T08:54:24.050Z,916.66
2019-05-29T08:55:44.196Z,916.68
2019-05-29T08:56:44.302Z,916.70
2019-05-29T09:00:48.143Z,916.69
2019-05-29T09:02:07.926Z,916.66
2019-05-29T09:03:07.900Z,916.64
2019-05-29T09:04:07.892Z,916.71
2019-05-29T09:05:07.886Z,916.66
2019-05-29T09:06:09.648Z,916.67
2019-05-29T09:07:07.856Z,916.67
2019-05-29T09:08:07.849Z,916.63
2019-05-29T09:09:07.841Z,916.63
2019-05-29T09:10:07.832Z,916.61
2019-05-29T09:11:07.819Z,916.65
2019-05-29T09:12:07.907Z,916.65
2019-05-29T09:13:07.796Z,916.62
2019-05-29T09:14:07.790Z,916.62
2019-05-29T09:15:08.320Z,916.63
2019-05-29T09:16:07.766Z,916.59
2019-05-29T09:17:08.086Z,916.59
2019-05-29T09:18:07.744Z,916.58
2019-05-29T09:19:07.733Z,916.55
2019-05-29T09:20:23.271Z,916.54
2019-05-29T09:21:32.528Z,916.56
2019-05-29T09:22:32.565Z,916.55
2019-05-29T09:23:32.505Z,916.52
2019-05-29T09:24:32.494Z,916.55
2019-05-29T09:25:32.490Z,916.50
2019-05-29T09:26:32.475Z,916.52
2019-05-29T09:27:32.462Z,916.47
2019-05-29T09:28:32.505Z,916.50
2019-05-29T09:29:32.443Z,916.46
2019-05-29T09:30:32.431Z,916.49
2019-05-29T09:31:32.421Z,916.52
2019-05-29T09:32:49.524Z,916.53
2019-05-29T09:33:33.504Z,916.50
2019-05-29T09:34:32.541Z,916.48
2019-05-29T09:35:32.380Z,916.52
2019-05-29T09:36:32.372Z,916.46
2019-05-29T09:37:32.361Z,916.48
2019-05-29T09:38:32.361Z,916.44
2019-05-29T09:39:32.351Z,916.43
2019-05-29T09:40:32.378Z,916.41
2019-05-29T09:41:32.322Z,916.36
2019-05-29T09:42:32.309Z,916.36
2019-05-29T09:43:32.295Z,916.41
2019-05-29T09:44:38.675Z,916.40
2019-05-29T09:45:57.140Z,916.30
2019-05-29T09:46:57.142Z,916.33
2019-05-29T09:47:57.117Z,916.35
2019-05-29T09:48:57.125Z,916.28
2019-05-29T09:49:57.095Z,916.31
2019-05-29T09:50:57.340Z,916.28
2019-05-29T09:51:57.926Z,916.30
2019-05-29T09:52:58.551Z,916.28
2019-05-29T09:53:58.258Z,916.27
2019-05-29T09:54:58.157Z,916.28
2019-05-29T09:55:57.807Z,916.30
2019-05-29T09:56:58.371Z,916.29
2019-05-29T09:57:57.013Z,916.30
2019-05-29T09:58:58.345Z,916.34
2019-05-29T09:59:59.563Z,916.30
2019-05-29T10:01:15.972Z,916.30
2019-05-29T10:02:00.308Z,916.26
2019-05-29T10:02:59.326Z,916.25
2019-05-29T10:03:59.255Z,916.23
2019-05-29T10:04:58.042Z,916.25
2019-05-29T10:05:57.554Z,916.19
2019-05-29T10:06:57.589Z,916.22
2019-05-29T10:08:58.044Z,916.07
2019-05-29T10:09:58.582Z,916.09
2019-05-29T10:11:04.822Z,916.11
2019-05-29T10:12:00.977Z,916.14
2019-05-29T10:12:58.007Z,916.08
2019-05-29T10:13:58.282Z,916.11
2019-05-29T10:14:57.192Z,916.10
2019-05-29T10:15:57.693Z,916.07
2019-05-29T10:16:59.335Z,916.03
2019-05-29T10:18:31.819Z,916.00
2019-05-29T10:19:22.701Z,916.05
2019-05-29T10:20:21.648Z,915.97
2019-05-29T10:21:38.527Z,916.00
2019-05-29T10:22:46.382Z,915.94
2019-05-29T10:23:46.394Z,915.92
2019-05-29T10:24:46.377Z,915.92
2019-05-29T10:25:46.452Z,915.93
2019-05-29T10:26:46.341Z,915.94
2019-05-29T10:27:46.567Z,915.94
2019-05-29T10:29:02.017Z,915.94
2019-05-29T10:29:50.259Z,915.98
2019-05-29T10:30:46.435Z,915.98
2019-05-29T10:31:47.735Z,915.95
2019-05-29T10:32:46.393Z,915.98
2019-05-29T10:33:46.268Z,915.98
2019-05-29T10:34:46.386Z,915.97
2019-05-29T10:35:49.022Z,915.96
2019-05-29T10:36:49.687Z,915.94
2019-05-29T10:37:46.643Z,916.01
2019-05-29T10:38:46.528Z,915.98
2019-05-29T10:39:46.781Z,915.96
2019-05-29T10:40:56.823Z,915.97
2019-05-29T10:42:10.998Z,915.96
2019-05-29T10:43:11.084Z,915.95
2019-05-29T10:44:12.897Z,915.94
2019-05-29T10:45:10.964Z,915.93
2019-05-29T10:46:10.957Z,915.95
2019-05-29T10:47:10.944Z,915.89
2019-05-29T10:48:10.940Z,915.88
2019-05-29T10:49:10.985Z,915.88
2019-05-29T10:50:11.119Z,915.89
2019-05-29T10:51:10.903Z,915.91
2019-05-29T10:52:16.747Z,915.88
2019-05-29T10:53:35.701Z,915.87
2019-05-29T10:54:39.105Z,915.87
2019-05-29T10:55:35.675Z,915.84
2019-05-29T10:56:35.668Z,915.88
2019-05-29T10:57:35.656Z,915.87
2019-05-29T10:58:48.744Z,915.85
2019-05-29T11:00:05.653Z,915.82
2019-05-29T11:01:05.551Z,915.88
2019-05-29T11:02:05.532Z,915.85
2019-05-29T11:03:05.519Z,915.84
2019-05-29T11:04:05.511Z,915.82
2019-05-29T11:05:05.500Z,915.80
2019-05-29T11:06:05.590Z,915.82
2019-05-29T11:07:05.479Z,915.81
2019-05-29T11:08:05.468Z,915.77
2019-05-29T11:09:05.471Z,915.77
2019-05-29T11:10:05.447Z,915.75
2019-05-29T11:11:05.437Z,915.79
2019-05-29T11:12:05.537Z,915.78
2019-05-29T11:13:05.420Z,915.76
2019-05-29T11:14:05.412Z,915.73
2019-05-29T11:15:20.365Z,915.75
2019-05-29T11:16:30.204Z,915.75
2019-05-29T11:17:30.296Z,915.69
2019-05-29T11:18:30.179Z,915.75
2019-05-29T11:19:30.166Z,915.75
2019-05-29T11:20:30.158Z,915.68
2019-05-29T11:21:30.146Z,915.68
2019-05-29T11:22:30.139Z,915.69
2019-05-29T11:23:30.230Z,915.74
2019-05-29T11:24:30.115Z,915.70
2019-05-29T11:25:30.109Z,915.71
2019-05-29T11:26:30.101Z,915.75
2019-05-29T11:27:30.087Z,915.76
2019-05-29T11:28:30.075Z,915.69
2019-05-29T11:29:30.169Z,915.68
2019-05-29T11:30:30.057Z,915.71
2019-05-29T11:31:30.044Z,915.67
2019-05-29T11:32:30.034Z,915.68
2019-05-29T11:33:30.025Z,915.64
2019-05-29T11:34:30.030Z,915.65
2019-05-29T11:35:30.106Z,915.63
2019-05-29T11:36:29.994Z,915.64
2019-05-29T11:37:29.982Z,915.56
2019-05-29T11:38:29.972Z,915.63
2019-05-29T11:39:29.960Z,915.63
2019-05-29T11:40:30.459Z,915.66
2019-05-29T11:41:30.042Z,915.63
2019-05-29T11:42:29.932Z,915.63
2019-05-29T11:43:29.921Z,915.61
2019-05-29T11:44:29.912Z,915.58
2019-05-29T11:45:30.005Z,915.58
2019-05-29T11:46:29.893Z,915.61
2019-05-29T11:47:30.019Z,915.54
2019-05-29T11:48:29.881Z,915.59
2019-05-29T11:49:29.862Z,915.58
2019-05-29T11:50:29.847Z,915.56
2019-05-29T11:51:29.839Z,915.56
2019-05-29T11:52:42.358Z,915.57
2019-05-29T11:53:30.982Z,915.54
2019-05-29T11:54:29.807Z,915.56
2019-05-29T11:55:29.798Z,915.54
2019-05-29T11:56:29.787Z,915.53
2019-05-29T11:57:29.800Z,915.53
2019-05-29T11:58:31.485Z,915.55
2019-05-29T11:59:29.762Z,915.54
2019-05-29T12:00:29.745Z,915.54
2019-05-29T12:01:29.733Z,915.51
2019-05-29T12:02:29.722Z,915.52
2019-05-29T12:03:29.714Z,915.48
2019-05-29T12:04:29.804Z,915.49
2019-05-29T12:05:29.703Z,915.53
2019-05-29T12:06:29.684Z,915.49
2019-05-29T12:07:29.673Z,915.50
2019-05-29T12:08:29.664Z,915.51
2019-05-29T12:09:33.290Z,915.52
2019-05-29T12:10:29.742Z,915.49
2019-05-29T12:11:29.644Z,915.48
2019-05-29T12:12:29.620Z,915.49
2019-05-29T12:13:29.609Z,915.50
2019-05-29T12:14:29.600Z,915.44
2019-05-29T12:15:29.591Z,915.45
2019-05-29T12:16:29.631Z,915.42
2019-05-29T12:17:29.606Z,915.42
2019-05-29T12:18:29.558Z,915.38
2019-05-29T12:19:29.548Z,915.38
2019-05-29T12:20:29.561Z,915.40
2019-05-29T12:21:29.539Z,915.37
2019-05-29T12:22:29.569Z,915.34
2019-05-29T12:23:29.510Z,915.37
2019-05-29T12:24:29.498Z,915.40
2019-05-29T12:25:29.492Z,915.39
2019-05-29T12:26:29.478Z,915.35
2019-05-29T12:27:29.464Z,915.35
2019-05-29T12:28:29.580Z,915.33
2019-05-29T12:29:29.450Z,915.33
2019-05-29T12:30:29.434Z,915.30
2019-05-29T12:31:29.425Z,915.30
2019-05-29T12:32:29.416Z,915.31
2019-05-29T12:33:29.404Z,915.31
2019-05-29T12:34:29.446Z,915.30
2019-05-29T12:35:29.383Z,915.29
2019-05-29T12:36:29.374Z,915.32
2019-05-29T12:37:29.362Z,915.31
2019-05-29T12:38:29.352Z,915.30
2019-05-29T12:39:29.342Z,915.35
2019-05-29T12:40:29.457Z,915.27
2019-05-29T12:41:29.324Z,915.27
2019-05-29T12:42:29.312Z,915.26
2019-05-29T12:43:29.299Z,915.26